Terminal Aerodrome Forecast
Issued by NWS Houston/Galveston, TX

Home | Current Version | Previous Version | Text Only | Print | Product List | Glossary On
Versions: 1 2 3 4 5 6 7 8 9 10 11 12 13 14 15 16 17 18 19 20 21 22 23 24 25 26 27 28 29 30 31 32 33 34 35 36 37 38 39 40 41 42 43 44 45 46 47 48 49 50
000
FTUS44 KHGX 161500 AAB
TAFCLL
TAF AMD
KCLL 161500Z 1615/1712 19009KT P6SM VCSH SCT015 BKN025 OVC040
     FM161800 17011G19KT P6SM VCTS SCT017CB BKN040
      TEMPO 1618/1621 4SM SHRA BR BKN017
     FM162100 18012G21KT P6SM VCSH SCT018 BKN060
     FM170100 17009KT P6SM FEW025 SCT250
     FM170900 16007G17KT P6SM VCSH SCT015 BKN250=

USA.gov is the U.S. government's official web portal to all federal, state and local government web resources and services.